Aérodrome :
LOGIN :

S'inscrire | Disclaimer

   EN    FR    IT 

 










Légende :    VFR   VFR Marginal   IFR   IFR Intensif   IFR Très Intensif
Visi : 
Plafond : 
>= 8 km
>= 3000ft
5 à 8 km
1000 à 3000 ft
1500m à 5 km
500 à 1000 ft
800 à 1500m
200 à 500 ft
< 800m
< 200 ft
Symboles :   Orages  Brouillard  Fortes neiges  Fortes précipitations  Vent > 20 kt
SIGMETs :   Divers  Orages  Givrage  Turbulence  Onde Orograph.  Cendres Volcan.






- Altitude de l'aérodrome : 17 ft
- Code IATA : DND


EGPN - Dundee

DERNIER METAR :
  • 231750Z 24016KT 9999 FEW035 05/02 Q1013

METARs EXPIRÉS :
  • 231720Z 25015KT 9999 FEW020 06/02 Q1013
  • 231650Z 28009KT 9999 FEW020 06/02 Q1012
  • 231620Z 28012KT 9999 FEW020 07/02 Q1011
  • 231550Z 28017KT 9999 FEW020 07/01 Q1010
  • 231520Z 28019G30KT 9999 FEW020 07/01 Q1009

TAF TAF EGPN
Valide du 23 à 18h jusqu'au 23 à 21h UTC


231700Z 2318/2321 26012KT 9999 FEW030
PROB30
TEMPO 2318/2319 28018G28KT



MET'MAP, la Météo Aéronautique d'un coup d'oeil ! - Copyright ORBIFLY Décembre 2007 - Disclaimer

ORBIFLY MET'MAP TEAM :

Programmation & Développement : Alexandra Zaïnal
Sur une idée originale de : Baudouin d'Aumeries
Assistance à la programmation : Marc-Olivier Méhu
Soutien technique & logistique : Manuel Goepfert

Contact : metmap@orbifly.com




SOURCES & CREDITS :

   NOAA